Time;durP1;ratioP1;P1;durP2;ratioP2;P2;SDS_P1;SDS_P2;PMS_P1;PMS_P2;Temp;Humidity;BMP_temperature;BMP_pressure;BME280_temperature;BME280_humidity;BME280_pressure;Samples;Min_cycle;Max_cycle;Signal;HPM_P1;HPM_P2
2022/07/04 00:01:29;;;;;;;3.22;2.63;;;21.10;62.10;;;;;;5069023;28;20201;-89
2022/07/04 00:03:59;;;;;;;4.60;2.95;;;21.10;59.80;;;;;;5065140;28;20649;-89
2022/07/04 00:06:46;;;;;;;2.78;2.50;;;21.20;61.00;;;;;;5059782;28;20198;-89
2022/07/04 00:09:13;;;;;;;3.60;2.20;;;21.30;57.60;;;;;;5056146;28;20217;-89
2022/07/04 00:11:42;;;;;;;8.07;2.70;;;21.30;57.10;;;;;;5068674;28;20212;-89
2022/07/04 00:14:23;;;;;;;7.60;2.60;;;21.40;57.20;;;;;;5060955;28;20208;-89
2022/07/04 00:16:53;;;;;;;2.92;2.70;;;21.40;57.20;;;;;;5060680;28;20198;-89
2022/07/04 00:19:40;;;;;;;3.70;2.50;;;21.40;57.20;;;;;;5064524;28;20659;-89
2022/07/04 00:22:28;;;;;;;2.92;2.63;;;21.50;57.30;;;;;;5071519;28;20652;-89
2022/07/04 00:24:55;;;;;;;2.80;2.22;;;21.50;57.30;;;;;;5066013;28;20581;-89
2022/07/04 00:27:36;;;;;;;3.25;2.42;;;21.60;57.40;;;;;;5070739;28;20561;-89
2022/07/04 00:30:05;;;;;;;3.28;2.30;;;21.50;58.50;;;;;;5064333;28;20200;-89
2022/07/04 00:32:35;;;;;;;2.38;2.17;;;21.30;64.80;;;;;;5068096;28;20226;-89
2022/07/04 00:35:28;;;;;;;5.00;1.95;;;21.20;65.60;;;;;;5065279;28;20570;-89
2022/07/04 00:37:56;;;;;;;2.95;2.42;;;21.20;66.40;;;;;;5057876;28;20207;-89
2022/07/04 00:40:35;;;;;;;4.85;2.30;;;21.20;65.50;;;;;;5070021;28;20251;-89
2022/07/04 00:43:05;;;;;;;4.57;2.35;;;21.20;65.90;;;;;;5071447;28;20226;-87
2022/07/04 00:45:32;;;;;;;2.95;2.30;;;21.10;68.10;;;;;;5073693;28;20216;-87
2022/07/04 00:47:59;;;;;;;2.40;2.20;;;21.10;67.50;;;;;;5077420;28;20778;-89
2022/07/04 00:50:52;;;;;;;2.97;2.67;;;21.10;66.70;;;;;;5075135;28;20193;-89
2022/07/04 00:53:22;;;;;;;2.28;2.08;;;21.20;67.00;;;;;;5074539;28;20209;-89
2022/07/04 00:55:54;;;;;;;3.20;2.10;;;21.10;65.50;;;;;;5074487;28;20717;-89
2022/07/04 00:58:38;;;;;;;2.25;2.15;;;21.10;64.90;;;;;;5073915;28;20197;-89
2022/07/04 01:01:17;;;;;;;3.63;2.75;;;21.10;64.50;;;;;;5075268;28;20663;-89
2022/07/04 01:03:47;;;;;;;2.38;2.10;;;21.00;65.90;;;;;;5070913;28;20205;-89
2022/07/04 01:06:35;;;;;;;4.35;2.30;;;20.90;66.40;;;;;;5070535;28;20210;-89
2022/07/04 01:09:02;;;;;;;2.72;1.90;;;21.00;67.30;;;;;;5074535;28;20200;-89
2022/07/04 01:11:29;;;;;;;3.67;2.20;;;21.00;68.60;;;;;;5068210;28;20212;-89
2022/07/04 01:14:18;;;;;;;2.33;2.10;;;21.10;66.90;;;;;;5061692;28;21498;-89
2022/07/04 01:17:05;;;;;;;5.03;2.10;;;21.10;66.50;;;;;;5062693;28;20205;-89
2022/07/04 01:19:32;;;;;;;2.28;2.00;;;21.10;66.60;;;;;;5066820;28;20212;-89
2022/07/04 01:22:08;;;;;;;2.25;2.00;;;21.00;67.20;;;;;;5070731;28;20194;-89
2022/07/04 01:24:35;;;;;;;2.22;1.98;;;21.10;65.70;;;;;;5062998;28;20583;-89
2022/07/04 01:27:02;;;;;;;2.17;1.98;;;21.00;65.20;;;;;;5069634;28;20667;-89
2022/07/04 01:29:29;;;;;;;2.35;2.15;;;20.90;65.90;;;;;;5073313;28;20201;-89
2022/07/04 01:31:56;;;;;;;3.42;2.17;;;20.90;66.70;;;;;;5070964;28;20233;-89
2022/07/04 01:34:23;;;;;;;3.75;1.92;;;20.80;65.60;;;;;;5074840;28;20205;-89
2022/07/04 01:37:07;;;;;;;2.45;2.15;;;20.80;69.30;;;;;;5068838;28;20555;-89
2022/07/04 01:39:35;;;;;;;2.30;2.00;;;20.90;67.90;;;;;;5060378;28;20285;-89
2022/07/04 01:42:11;;;;;;;1.75;1.65;;;20.90;62.30;;;;;;5069652;28;20212;-89
2022/07/04 01:44:53;;;;;;;2.58;1.88;;;20.80;61.80;;;;;;5071059;28;20274;-89
2022/07/04 01:47:23;;;;;;;2.28;1.88;;;20.90;60.70;;;;;;5071288;28;20197;-89
2022/07/04 01:49:50;;;;;;;2.45;2.00;;;20.90;59.30;;;;;;5073826;28;20189;-89
2022/07/04 01:52:25;;;;;;;2.17;1.98;;;21.00;59.80;;;;;;5070133;28;20201;-89
2022/07/04 01:54:53;;;;;;;2.38;1.80;;;20.90;59.50;;;;;;5066364;28;20719;-89
2022/07/04 01:57:23;;;;;;;2.72;2.10;;;21.00;58.50;;;;;;5070878;28;20197;-89
2022/07/04 02:02:35;;;;;;;3.55;2.10;;;20.90;56.70;;;;;;5066650;28;20197;-89
2022/07/04 02:05:06;;;;;;;2.55;2.03;;;20.90;57.20;;;;;;5072224;28;20601;-89
2022/07/04 02:07:37;;;;;;;3.15;1.92;;;20.90;56.80;;;;;;5066372;28;20201;-89
2022/07/04 02:10:04;;;;;;;3.67;1.98;;;20.90;58.20;;;;;;5072113;28;20197;-89
2022/07/04 02:15:19;;;;;;;2.40;2.20;;;20.80;59.80;;;;;;5072151;28;20216;-89
2022/07/04 02:18:00;;;;;;;5.15;2.17;;;20.80;60.00;;;;;;5068017;28;20197;-89
2022/07/04 02:20:29;;;;;;;4.03;2.40;;;20.70;61.70;;;;;;5068427;28;20212;-89
2022/07/04 02:23:12;;;;;;;4.50;2.28;;;20.70;61.80;;;;;;5071549;28;20213;-88
2022/07/04 02:25:53;;;;;;;2.33;2.00;;;20.70;62.00;;;;;;5065514;28;20229;-89
2022/07/04 02:28:23;;;;;;;4.20;1.83;;;20.70;62.60;;;;;;5067899;28;20200;-89
2022/07/04 02:30:53;;;;;;;2.08;1.80;;;20.70;65.20;;;;;;5071169;28;20197;-89
2022/07/04 02:33:23;;;;;;;2.40;2.10;;;20.70;64.70;;;;;;5068718;28;20232;-89
2022/07/04 02:35:51;;;;;;;2.80;2.50;;;20.60;66.20;;;;;;5064295;28;20201;-89
2022/07/04 02:38:19;;;;;;;3.55;2.20;;;20.50;66.90;;;;;;5064502;28;20233;-86
2022/07/04 02:41:05;;;;;;;4.60;2.20;;;20.50;68.00;;;;;;5069414;28;20197;-89
2022/07/04 02:43:32;;;;;;;2.95;2.00;;;20.50;67.80;;;;;;5069136;28;20200;-89
2022/07/04 02:45:59;;;;;;;2.88;2.20;;;20.40;67.20;;;;;;5070943;28;20221;-89
2022/07/04 02:48:27;;;;;;;2.58;2.08;;;20.50;68.40;;;;;;5068642;28;20192;-89
2022/07/04 02:50:59;;;;;;;5.25;1.80;;;20.50;68.30;;;;;;5069025;28;20216;-89
2022/07/04 02:53:42;;;;;;;2.95;2.40;;;20.40;69.00;;;;;;5068987;28;20189;-89
2022/07/04 02:56:17;;;;;;;3.05;2.20;;;20.40;70.00;;;;;;5066431;28;20672;-89
2022/07/04 02:59:05;;;;;;;2.85;2.47;;;20.30;70.70;;;;;;5065384;28;20193;-89
2022/07/04 03:01:32;;;;;;;3.22;2.40;;;20.20;71.00;;;;;;5068681;28;20651;-89
2022/07/04 03:03:59;;;;;;;4.25;2.30;;;20.10;72.50;;;;;;5067410;28;20200;-89
2022/07/04 03:06:27;;;;;;;3.97;2.13;;;20.10;74.00;;;;;;5067665;28;20222;-89
2022/07/04 03:09:04;;;;;;;2.88;2.25;;;20.20;74.10;;;;;;5066926;28;20201;-89
2022/07/04 03:12:24;;;;;;;2.75;2.38;;;20.10;74.10;;;;;;5065816;28;20644;-89
2022/07/04 03:20:59;;;;;;;2.53;2.25;;;20.30;77.60;;;;;;5070863;28;20205;-89
2022/07/04 03:24:02;;;;;;;3.20;2.60;;;20.10;75.90;;;;;;5066579;28;20946;-89
2022/07/04 03:26:43;;;;;;;4.25;2.20;;;20.00;80.30;;;;;;5064898;28;20217;-89
2022/07/04 03:29:17;;;;;;;4.68;2.30;;;20.10;77.30;;;;;;5065268;28;20685;-89
2022/07/04 03:31:47;;;;;;;4.55;2.20;;;20.10;78.30;;;;;;5067064;28;20615;-89
2022/07/04 03:34:35;;;;;;;3.42;2.40;;;19.90;77.70;;;;;;5070228;28;20208;-89
2022/07/04 03:37:02;;;;;;;6.38;3.53;;;20.00;80.90;;;;;;5072969;28;20201;-88
2022/07/04 03:39:29;;;;;;;2.70;2.15;;;20.20;81.00;;;;;;5067162;28;20198;-88
2022/07/04 03:42:13;;;;;;;3.83;2.03;;;20.10;78.50;;;;;;5063305;28;20201;-88
2022/07/04 03:44:53;;;;;;;3.53;2.40;;;19.90;78.40;;;;;;5072664;28;20243;-89
2022/07/04 03:48:04;;;;;;;2.22;2.00;;;19.80;79.10;;;;;;5074323;28;20193;-89
2022/07/04 03:50:32;;;;;;;3.70;2.20;;;19.80;80.70;;;;;;5073556;28;20253;-88
2022/07/04 03:52:59;;;;;;;5.85;3.20;;;19.80;80.70;;;;;;5072608;28;20579;-88
2022/07/04 03:55:26;;;;;;;7.25;3.60;;;19.90;80.80;;;;;;5073189;28;20203;-88
2022/07/04 03:57:54;;;;;;;6.05;3.58;;;20.10;80.90;;;;;;5063892;28;20208;-89
2022/07/04 04:00:22;;;;;;;4.18;2.42;;;20.30;81.00;;;;;;5062839;28;20251;-89
2022/07/04 04:05:26;;;;;;;3.47;2.40;;;20.40;78.10;;;;;;5073151;28;20209;-88
2022/07/04 04:05:52;;;;;;;6.32;3.40;;;20.40;78.60;;;;;;5073560;28;20217;-89
2022/07/04 04:08:24;;;;;;;6.75;3.20;;;20.50;78.60;;;;;;5064921;28;20212;-89
2022/07/04 04:10:51;;;;;;;3.40;2.22;;;20.50;78.70;;;;;;5073375;28;20212;-89
2022/07/04 04:13:54;;;;;;;3.83;2.28;;;20.50;77.00;;;;;;5067412;28;20194;-89
2022/07/04 04:16:30;;;;;;;2.60;2.38;;;20.40;77.90;;;;;;5075443;28;20569;-89
2022/07/04 04:18:59;;;;;;;2.45;2.20;;;20.20;78.30;;;;;;5065781;28;20216;-89
2022/07/04 04:21:26;;;;;;;16.45;2.95;;;20.10;78.70;;;;;;5067760;28;20594;-87
2022/07/04 04:23:53;;;;;;;4.97;2.95;;;20.10;80.90;;;;;;5073429;28;20197;-88
2022/07/04 04:26:47;;;;;;;2.80;2.47;;;20.10;80.90;;;;;;5071592;28;20682;-88
2022/07/04 04:29:40;;;;;;;4.38;2.65;;;20.20;80.60;;;;;;5072764;28;20190;-88
2022/07/04 04:32:08;;;;;;;3.22;1.98;;;20.20;77.80;;;;;;5075116;28;20236;-88
2022/07/04 04:34:41;;;;;;;3.30;2.17;;;20.20;77.90;;;;;;5072497;28;20201;-87
2022/07/04 04:37:23;;;;;;;3.47;2.00;;;20.10;80.20;;;;;;5077558;28;20699;-86
2022/07/04 04:40:06;;;;;;;5.60;2.40;;;20.10;80.90;;;;;;5070315;28;20216;-87
2022/07/04 04:42:36;;;;;;;2.58;2.03;;;20.10;80.90;;;;;;5066368;28;20190;-86
2022/07/04 04:45:13;;;;;;;2.05;1.88;;;20.10;80.90;;;;;;5071911;28;20209;-87
2022/07/04 04:47:47;;;;;;;3.58;2.40;;;20.10;80.90;;;;;;5071072;28;20196;-88
2022/07/04 04:50:23;;;;;;;3.03;2.33;;;20.30;81.00;;;;;;5070633;28;20204;-88
2022/07/04 04:52:50;;;;;;;3.80;2.85;;;20.50;81.20;;;;;;5072838;28;20212;-86
2022/07/04 04:55:17;;;;;;;2.58;2.10;;;20.80;78.40;;;;;;5075233;28;20200;-87
2022/07/04 04:57:53;;;;;;;2.30;2.00;;;20.90;79.40;;;;;;5076398;28;20200;-87
2022/07/04 05:00:37;;;;;;;3.65;2.50;;;20.90;77.10;;;;;;5073965;28;20240;-88
2022/07/04 05:03:11;;;;;;;4.35;2.30;;;21.00;76.60;;;;;;5065864;28;20205;-89
2022/07/04 05:05:41;;;;;;;3.42;2.40;;;21.00;75.60;;;;;;5067314;28;20230;-89
2022/07/04 05:08:12;;;;;;;2.92;2.35;;;21.00;75.30;;;;;;5066141;28;20626;-89
2022/07/04 05:10:39;;;;;;;2.50;2.30;;;21.10;73.50;;;;;;5067103;28;20198;-89
2022/07/04 05:13:17;;;;;;;2.80;2.50;;;21.20;76.60;;;;;;5066605;28;20287;-89
2022/07/04 05:15:47;;;;;;;2.13;2.00;;;21.20;75.30;;;;;;5069513;28;20198;-88
2022/07/04 05:18:35;;;;;;;2.95;2.17;;;21.30;74.90;;;;;;5071135;28;20199;-87
2022/07/04 05:21:17;;;;;;;3.03;2.40;;;21.30;74.00;;;;;;5071659;28;20284;-88
2022/07/04 05:23:54;;;;;;;3.20;2.55;;;21.10;76.90;;;;;;5063946;28;20210;-87
2022/07/04 05:26:23;;;;;;;5.20;2.53;;;21.10;77.20;;;;;;5071190;28;20221;-88
2022/07/04 05:29:05;;;;;;;5.63;2.33;;;21.10;75.80;;;;;;5073646;28;20554;-88
2022/07/04 05:31:34;;;;;;;2.95;2.30;;;21.10;76.40;;;;;;5075086;28;20227;-89
2022/07/04 05:34:06;;;;;;;3.63;2.50;;;20.80;79.30;;;;;;5071923;28;20208;-89
2022/07/04 05:36:33;;;;;;;2.80;2.40;;;20.70;81.30;;;;;;5080222;28;20193;-89
2022/07/04 05:39:06;;;;;;;2.67;2.42;;;20.70;81.30;;;;;;5072457;28;20655;-89
2022/07/04 05:41:41;;;;;;;3.25;2.40;;;20.70;83.60;;;;;;5068455;28;20206;-89
2022/07/04 05:44:41;;;;;;;2.92;2.33;;;20.60;84.70;;;;;;5066143;28;20280;-89
2022/07/04 05:47:25;;;;;;;4.40;2.28;;;20.50;85.40;;;;;;5070349;28;20570;-89
2022/07/04 05:50:06;;;;;;;2.58;2.38;;;20.50;85.20;;;;;;5067628;28;20613;-89
2022/07/04 05:52:35;;;;;;;4.57;2.30;;;20.60;84.10;;;;;;5069498;28;20198;-89
2022/07/04 05:55:17;;;;;;;3.90;2.50;;;20.70;82.40;;;;;;5068053;28;20198;-89
2022/07/04 05:57:47;;;;;;;2.70;2.45;;;20.80;83.50;;;;;;5078361;28;20211;-89
2022/07/04 06:00:35;;;;;;;2.72;2.20;;;20.80;81.40;;;;;;5076810;28;20197;-88
2022/07/04 06:03:07;;;;;;;2.97;2.30;;;20.90;81.40;;;;;;5071793;28;20193;-89
2022/07/04 06:06:05;;;;;;;4.10;2.15;;;20.90;83.80;;;;;;5071231;28;20671;-89
2022/07/04 06:08:47;;;;;;;2.75;2.38;;;21.10;81.60;;;;;;5072134;28;20197;-89
2022/07/04 06:11:23;;;;;;;3.60;2.20;;;21.10;83.70;;;;;;5059127;28;20201;-90
2022/07/04 06:13:51;;;;;;;3.08;2.50;;;21.10;81.60;;;;;;5074783;28;20647;-89
2022/07/04 06:16:41;;;;;;;2.15;1.95;;;21.10;81.60;;;;;;5070510;28;20198;-89
2022/07/04 06:19:13;;;;;;;3.35;2.22;;;21.10;81.60;;;;;;5072694;28;20697;-89
2022/07/04 06:21:53;;;;;;;3.08;2.15;;;21.20;80.50;;;;;;5069304;28;20201;-89
2022/07/04 06:24:35;;;;;;;3.35;2.28;;;21.20;80.90;;;;;;5066631;28;20197;-89
2022/07/04 06:27:18;;;;;;;2.72;2.17;;;21.10;81.60;;;;;;5063792;28;20209;-89
2022/07/04 06:29:47;;;;;;;4.57;2.38;;;21.10;81.60;;;;;;5048270;28;20202;-90
2022/07/04 06:32:14;;;;;;;2.78;2.20;;;21.10;81.20;;;;;;5061899;28;20573;-89
2022/07/04 06:38:00;;;;;;;3.35;2.15;;;21.10;78.70;;;;;;5030780;28;20230;-86
2022/07/04 06:41:12;;;;;;;2.05;1.85;;;21.20;80.10;;;;;;5033551;28;20195;-86
2022/07/04 06:43:41;;;;;;;3.25;2.17;;;21.30;77.90;;;;;;5030636;28;20190;-89
2022/07/04 06:46:08;;;;;;;4.18;1.90;;;21.30;77.70;;;;;;5032771;28;20236;-89
2022/07/04 06:48:41;;;;;;;2.85;1.90;;;21.30;80.40;;;;;;5029620;28;20695;-89
2022/07/04 06:51:19;;;;;;;2.75;2.08;;;21.30;79.40;;;;;;5033447;28;20642;-89
2022/07/04 06:54:05;;;;;;;2.10;1.90;;;21.30;79.20;;;;;;5032408;28;20198;-89
2022/07/04 06:56:35;;;;;;;2.92;2.05;;;21.30;81.70;;;;;;5033406;28;20695;-89
2022/07/04 06:59:41;;;;;;;6.35;2.00;;;21.10;81.60;;;;;;5030877;28;20233;-89
2022/07/04 07:02:08;;;;;;;3.50;2.03;;;21.10;81.60;;;;;;5033409;28;20369;-89
2022/07/04 07:04:42;;;;;;;2.28;1.80;;;21.10;82.50;;;;;;5033509;28;20195;-89
2022/07/04 07:07:33;;;;;;;5.63;2.20;;;21.00;81.60;;;;;;5029665;28;20591;-89
2022/07/04 07:10:11;;;;;;;2.10;1.90;;;21.10;81.60;;;;;;5032848;28;20203;-89
2022/07/04 07:12:38;;;;;;;2.20;1.95;;;21.10;81.60;;;;;;5054678;28;20203;-89
2022/07/04 07:15:19;;;;;;;3.20;2.17;;;21.00;82.40;;;;;;5072835;28;20200;-89
2022/07/04 07:17:46;;;;;;;5.07;2.25;;;21.00;81.50;;;;;;5075938;28;20200;-89
2022/07/04 07:20:35;;;;;;;3.45;2.20;;;20.90;81.40;;;;;;5072548;28;20198;-89
2022/07/04 07:23:07;;;;;;;4.28;2.20;;;20.90;81.70;;;;;;5067367;28;20201;-89
2022/07/04 07:25:35;;;;;;;1.90;1.80;;;20.80;84.00;;;;;;5056259;28;20213;-89
2022/07/04 07:28:11;;;;;;;2.55;2.10;;;21.00;81.60;;;;;;5067119;28;20209;-89
2022/07/04 07:30:47;;;;;;;2.63;2.08;;;20.90;84.40;;;;;;5077273;28;20203;-89
2022/07/04 07:33:14;;;;;;;2.80;2.13;;;20.90;84.40;;;;;;5068944;28;20580;-90
2022/07/04 07:35:42;;;;;;;2.58;1.92;;;21.00;82.00;;;;;;5073794;28;20202;-89
2022/07/04 07:38:13;;;;;;;3.70;2.40;;;21.00;83.40;;;;;;5071147;28;20203;-89
2022/07/04 07:40:47;;;;;;;4.80;2.28;;;20.80;83.20;;;;;;5059557;28;20197;-89
2022/07/04 07:43:36;;;;;;;4.30;2.08;;;20.70;84.80;;;;;;5063017;28;20603;-89
2022/07/04 07:46:29;;;;;;;2.20;2.00;;;20.60;86.60;;;;;;5066350;28;20202;-89
2022/07/04 07:48:56;;;;;;;2.72;2.30;;;20.70;86.90;;;;;;5063594;28;20674;-89
2022/07/04 07:51:29;;;;;;;4.68;2.17;;;20.80;86.50;;;;;;5060923;28;20200;-89
2022/07/04 07:53:58;;;;;;;2.53;2.00;;;20.90;85.20;;;;;;5065308;28;20209;-89
2022/07/04 07:56:41;;;;;;;2.53;1.85;;;21.10;84.60;;;;;;5061074;28;20185;-89
2022/07/04 07:59:35;;;;;;;2.58;1.90;;;21.40;84.10;;;;;;5063899;28;20895;-89
2022/07/04 08:02:05;;;;;;;2.63;2.00;;;21.80;82.10;;;;;;5062021;28;20201;-89
2022/07/04 08:04:46;;;;;;;3.03;2.00;;;22.10;77.20;;;;;;5069740;28;20202;-90
2022/07/04 08:07:17;;;;;;;3.85;1.80;;;22.30;76.70;;;;;;5063222;28;20255;-89
2022/07/04 08:10:13;;;;;;;3.72;2.13;;;22.30;75.30;;;;;;5067840;28;20660;-90
2022/07/04 08:12:55;;;;;;;3.72;2.25;;;22.20;76.20;;;;;;5070816;28;20217;-87
2022/07/04 08:15:22;;;;;;;4.18;2.13;;;22.20;76.30;;;;;;5063994;28;20709;-87
2022/07/04 08:18:00;;;;;;;2.45;2.13;;;22.30;77.10;;;;;;5071479;28;20546;-87
2022/07/04 08:20:30;;;;;;;3.42;2.00;;;22.40;75.50;;;;;;5066236;28;20197;-88
2022/07/04 08:23:17;;;;;;;3.55;2.20;;;22.60;70.40;;;;;;5073984;28;20201;-87
2022/07/04 08:26:18;;;;;;;3.70;2.30;;;22.90;73.30;;;;;;5067456;28;20624;-87
2022/07/04 08:28:47;;;;;;;2.47;1.90;;;23.20;67.30;;;;;;5064334;28;20193;-86
2022/07/04 08:31:35;;;;;;;2.10;1.80;;;23.70;61.60;;;;;;5079456;28;20189;-85
2022/07/04 08:34:23;;;;;;;2.90;1.98;;;23.90;56.90;;;;;;5065955;28;20702;-86
2022/07/04 08:36:53;;;;;;;3.15;2.03;;;24.00;57.50;;;;;;5060007;28;20289;-86
2022/07/04 08:39:27;;;;;;;2.65;2.00;;;24.30;57.10;;;;;;5060183;28;20201;-86
2022/07/04 08:42:21;;;;;;;2.28;1.90;;;24.70;53.90;;;;;;5065973;28;20629;-86
2022/07/04 08:44:50;;;;;;;4.43;2.28;;;25.50;44.00;;;;;;5062209;28;20213;-88
2022/07/04 08:47:43;;;;;;;2.53;1.70;;;25.60;43.80;;;;;;5056607;28;20210;-88
2022/07/04 08:50:27;;;;;;;1.73;1.60;;;25.80;40.70;;;;;;5062174;28;20212;-88
2022/07/04 08:53:03;;;;;;;2.13;1.92;;;25.80;39.80;;;;;;5061863;28;20194;-88
2022/07/04 08:58:35;;;;;;;2.70;1.50;;;26.00;36.80;;;;;;5065355;28;20971;-88
2022/07/04 09:01:04;;;;;;;1.80;1.70;;;26.80;35.90;;;;;;5065962;28;20239;-89
2022/07/04 09:04:00;;;;;;;2.75;1.65;;;27.70;30.60;;;;;;5070236;28;20193;-86
2022/07/04 09:06:36;;;;;;;3.47;2.00;;;28.80;26.90;;;;;;5066972;28;20194;-88
2022/07/04 09:09:07;;;;;;;2.08;1.88;;;29.70;24.90;;;;;;5073316;28;20346;-89
2022/07/04 09:11:35;;;;;;;2.75;2.08;;;31.10;18.80;;;;;;5059834;28;20259;-89
2022/07/04 09:14:04;;;;;;;3.67;2.35;;;31.60;19.00;;;;;;5070982;28;20213;-90
2022/07/04 09:16:41;;;;;;;2.40;2.17;;;33.10;18.00;;;;;;5077097;28;20276;-89
2022/07/04 09:19:21;;;;;;;2.50;2.05;;;33.70;15.40;;;;;;5055329;28;20266;-90
2022/07/04 09:27:44;;;;;;;2.60;2.40;;;34.60;12.10;;;;;;5070169;28;20246;-90
2022/07/04 09:30:17;;;;;;;3.13;2.83;;;35.00;12.20;;;;;;5066331;28;20651;-91
2022/07/04 09:32:45;;;;;;;4.32;2.80;;;35.10;11.50;;;;;;5069996;28;20242;-91
2022/07/04 09:39:09;;;;;;;5.18;2.80;;;34.10;13.50;;;;;;5064362;28;20231;-91
2022/07/04 09:41:57;;;;;;;2.72;2.50;;;32.90;16.10;;;;;;5062904;28;20222;-90
2022/07/04 09:44:48;;;;;;;2.72;2.47;;;33.10;15.00;;;;;;5064991;28;20644;-90
2022/07/04 09:47:31;;;;;;;2.70;2.50;;;32.90;14.80;;;;;;5070114;28;20223;-91
2022/07/04 09:53:29;;;;;;;16.20;11.00;;;33.60;14.50;;;;;;5047925;28;20201;-90
2022/07/04 09:55:56;;;;;;;27.52;20.90;;;32.90;14.70;;;;;;5048513;28;20197;-90
2022/07/04 09:58:38;;;;;;;60.67;43.05;;;33.00;16.40;;;;;;5045644;28;20202;-90
2022/07/04 10:01:23;;;;;;;3.13;2.30;;;33.60;15.20;;;;;;5028939;28;20633;-90
2022/07/04 10:04:08;;;;;;;23.17;16.30;;;33.30;12.70;;;;;;5045481;28;20201;-90
2022/07/04 10:06:40;;;;;;;2.35;2.25;;;32.70;14.80;;;;;;5049179;28;20204;-88
2022/07/04 10:09:29;;;;;;;2.60;2.40;;;31.80;15.50;;;;;;5046909;28;20204;-88
2022/07/04 10:11:56;;;;;;;18.85;11.95;;;31.20;17.30;;;;;;5051505;28;20213;-88
2022/07/04 10:14:23;;;;;;;7.30;5.85;;;31.00;19.30;;;;;;5046774;28;20194;-88
2022/07/04 10:16:55;;;;;;;38.40;24.45;;;30.80;18.90;;;;;;5050009;28;20206;-88
2022/07/04 10:19:25;;;;;;;14.50;9.80;;;30.60;19.40;;;;;;5047135;28;20204;-89
2022/07/04 10:22:12;;;;;;;12.20;8.57;;;30.20;19.40;;;;;;5034294;28;20288;-89
2022/07/04 10:24:42;;;;;;;47.42;28.58;;;29.60;22.00;;;;;;5067378;28;20663;-87
2022/07/04 10:27:15;;;;;;;9.65;7.13;;;29.40;22.10;;;;;;5063463;28;20216;-88
2022/07/04 10:30:06;;;;;;;1.98;1.88;;;28.90;24.50;;;;;;5059046;28;20192;-88
2022/07/04 10:33:12;;;;;;;2.15;1.75;;;28.90;23.40;;;;;;5066689;28;20228;-88
2022/07/04 10:35:57;;;;;;;10.60;6.47;;;28.40;25.10;;;;;;5064129;28;20199;-87
2022/07/04 10:38:26;;;;;;;2.15;1.85;;;28.20;21.60;;;;;;5065371;28;20208;-87
2022/07/04 10:41:07;;;;;;;5.38;3.15;;;27.70;24.50;;;;;;5062957;28;20588;-88
2022/07/04 10:43:52;;;;;;;2.20;1.95;;;27.30;25.50;;;;;;5062459;28;20603;-88
2022/07/04 10:50:05;;;;;;;1.83;1.70;;;27.10;25.80;;;;;;5065352;28;20614;-88
2022/07/04 10:52:37;;;;;;;2.50;1.92;;;27.10;26.20;;;;;;5058182;28;20208;-88
2022/07/04 10:55:18;;;;;;;3.10;2.20;;;27.30;25.80;;;;;;5072973;28;20555;-88
2022/07/04 10:57:53;;;;;;;2.03;1.73;;;27.20;27.40;;;;;;5069114;28;20201;-88
2022/07/04 11:00:37;;;;;;;2.08;1.70;;;26.90;25.90;;;;;;5063372;28;20200;-88
2022/07/04 11:03:19;;;;;;;2.92;2.00;;;26.90;27.60;;;;;;5060777;28;20289;-88
2022/07/04 11:05:49;;;;;;;3.05;1.88;;;27.00;29.10;;;;;;5067775;28;20193;-87
2022/07/04 11:08:25;;;;;;;1.98;1.73;;;27.00;25.70;;;;;;5061012;28;20577;-88
2022/07/04 11:11:35;;;;;;;2.63;2.03;;;26.80;27.30;;;;;;5071505;28;20204;-88
2022/07/04 11:14:35;;;;;;;1.73;1.63;;;26.90;25.70;;;;;;5069110;28;20211;-88
2022/07/04 11:17:03;;;;;;;4.93;1.88;;;27.20;24.80;;;;;;5066324;28;20563;-89
2022/07/04 11:19:43;;;;;;;2.58;1.85;;;27.20;26.90;;;;;;5063952;28;20542;-88
2022/07/04 11:22:24;;;;;;;4.15;1.75;;;27.50;25.00;;;;;;5071737;28;20551;-88
2022/07/04 11:25:01;;;;;;;2.20;2.00;;;27.70;27.30;;;;;;5063617;28;20193;-88
2022/07/04 11:27:30;;;;;;;2.05;1.77;;;28.10;23.80;;;;;;5067142;28;20244;-88
2022/07/04 11:30:12;;;;;;;1.90;1.80;;;28.20;24.70;;;;;;5058458;28;20235;-88
2022/07/04 11:32:47;;;;;;;2.25;1.60;;;28.50;21.10;;;;;;5067874;28;20266;-88
2022/07/04 11:35:29;;;;;;;2.75;1.60;;;28.70;22.10;;;;;;5069421;28;20246;-88
2022/07/04 11:38:11;;;;;;;2.40;1.85;;;28.70;21.50;;;;;;5058508;28;20198;-88
2022/07/04 11:46:42;;;;;;;2.45;1.75;;;28.20;22.50;;;;;;5004954;28;20297;-87
2022/07/04 11:49:23;;;;;;;2.55;1.77;;;28.20;25.20;;;;;;5002066;28;20233;-87
2022/07/04 11:51:55;;;;;;;2.95;1.77;;;28.50;20.90;;;;;;5004687;28;20692;-88
2022/07/04 11:54:23;;;;;;;2.90;2.00;;;28.90;23.20;;;;;;4995204;28;20261;-88
2022/07/04 11:57:17;;;;;;;2.20;1.80;;;29.10;23.20;;;;;;4997671;28;20203;-88
2022/07/04 12:00:00;;;;;;;1.70;1.60;;;28.80;23.80;;;;;;4980346;28;20195;-87
2022/07/04 12:02:42;;;;;;;2.90;1.75;;;28.50;21.50;;;;;;5000115;28;20230;-87
2022/07/04 12:05:13;;;;;;;1.98;1.65;;;28.40;23.80;;;;;;4980742;28;20199;-88
2022/07/04 12:11:05;;;;;;;2.85;1.90;;;28.50;20.70;;;;;;5009222;28;20269;-88
2022/07/04 12:13:43;;;;;;;2.03;1.75;;;28.20;20.20;;;;;;4997623;28;20214;-87
2022/07/04 12:16:29;;;;;;;3.22;1.73;;;27.90;21.10;;;;;;5062797;28;20258;-88
2022/07/04 12:18:58;;;;;;;1.60;1.50;;;27.80;21.70;;;;;;5071941;28;20200;-88
2022/07/04 12:21:30;;;;;;;2.00;1.80;;;27.60;21.30;;;;;;5061255;28;20199;-88
2022/07/04 12:23:57;;;;;;;2.03;1.80;;;27.70;23.30;;;;;;5057714;28;20201;-88
2022/07/04 12:26:33;;;;;;;3.15;2.83;;;27.80;23.60;;;;;;5062935;28;20224;-88
2022/07/04 12:29:01;;;;;;;3.65;1.95;;;27.90;22.50;;;;;;5059114;28;20227;-88
2022/07/04 12:31:39;;;;;;;3.30;1.85;;;28.00;21.20;;;;;;5059487;28;20221;-87
2022/07/04 12:34:14;;;;;;;3.17;1.98;;;28.30;21.60;;;;;;5064922;28;20208;-87
2022/07/04 12:36:49;;;;;;;2.22;1.80;;;28.30;20.30;;;;;;5069845;28;20196;-88
2022/07/04 12:39:28;;;;;;;3.40;1.90;;;28.20;20.50;;;;;;5063603;28;20965;-88
2022/07/04 12:42:06;;;;;;;2.15;1.92;;;28.30;20.10;;;;;;5064968;28;20601;-88
2022/07/04 12:44:44;;;;;;;2.15;1.70;;;28.20;20.30;;;;;;5064369;28;20204;-88
2022/07/04 12:47:24;;;;;;;3.00;1.98;;;28.10;21.60;;;;;;5071775;28;20648;-88
2022/07/04 12:49:54;;;;;;;2.25;2.05;;;28.20;23.10;;;;;;5069289;28;20197;-89
2022/07/04 12:52:21;;;;;;;2.20;1.88;;;28.00;22.20;;;;;;5065647;28;20202;-88
2022/07/04 12:55:11;;;;;;;5.80;1.70;;;27.90;23.20;;;;;;5070558;28;20201;-88
2022/07/04 13:01:25;;;;;;;2.00;1.67;;;27.80;22.50;;;;;;5064957;28;20643;-88
2022/07/04 13:04:06;;;;;;;3.75;1.95;;;27.70;21.90;;;;;;5066476;28;20227;-89
2022/07/04 13:06:51;;;;;;;2.35;2.15;;;27.80;24.10;;;;;;5061477;28;20194;-88
2022/07/04 13:09:24;;;;;;;3.90;2.00;;;27.90;21.40;;;;;;5074802;28;20233;-88
2022/07/04 13:14:48;;;;;;;2.75;2.00;;;28.50;21.30;;;;;;5071291;28;20251;-88
2022/07/04 13:17:56;;;;;;;1.73;1.58;;;28.60;22.80;;;;;;5066341;28;20197;-88
2022/07/04 13:20:27;;;;;;;2.15;1.77;;;28.90;20.70;;;;;;5070813;28;20197;-88
2022/07/04 13:23:00;;;;;;;2.83;2.10;;;28.90;22.30;;;;;;5071462;28;20571;-88
2022/07/04 13:25:59;;;;;;;1.88;1.77;;;28.90;20.70;;;;;;5066615;28;20284;-88
2022/07/04 13:28:30;;;;;;;4.03;1.88;;;29.00;20.60;;;;;;5066013;28;20691;-88
2022/07/04 13:31:00;;;;;;;2.50;1.92;;;29.00;20.80;;;;;;5073243;28;20201;-88
2022/07/04 13:33:28;;;;;;;2.40;1.90;;;29.00;21.60;;;;;;5064573;28;20220;-88
2022/07/04 13:36:01;;;;;;;2.38;1.98;;;28.70;19.20;;;;;;5071006;28;20206;-87
2022/07/04 13:38:30;;;;;;;18.17;16.40;;;28.40;20.60;;;;;;5068232;28;20197;-88
2022/07/04 13:41:23;;;;;;;9.27;8.00;;;28.20;22.20;;;;;;5070187;28;20243;-87
2022/07/04 13:43:56;;;;;;;4.30;3.78;;;28.00;22.50;;;;;;5070815;28;20195;-88
2022/07/04 13:46:24;;;;;;;2.22;1.92;;;28.10;22.80;;;;;;5066153;28;20201;-88
2022/07/04 13:48:59;;;;;;;2.33;2.13;;;28.20;21.50;;;;;;5070247;28;20215;-87
2022/07/04 13:51:32;;;;;;;2.60;1.92;;;28.40;20.60;;;;;;5073546;28;20200;-88
2022/07/04 13:54:06;;;;;;;2.30;2.10;;;28.30;20.60;;;;;;5063946;28;20185;-87
2022/07/04 13:56:36;;;;;;;1.83;1.70;;;28.60;21.20;;;;;;5073005;28;20624;-87
2022/07/04 13:59:04;;;;;;;2.17;1.95;;;28.60;20.50;;;;;;5070967;28;20208;-87
2022/07/04 14:01:42;;;;;;;3.58;1.92;;;28.60;19.40;;;;;;5071237;28;20561;-87
2022/07/04 14:04:09;;;;;;;2.08;1.90;;;28.50;19.70;;;;;;5066972;28;20579;-87
2022/07/04 14:06:37;;;;;;;8.07;6.72;;;28.30;20.60;;;;;;5067375;28;20757;-87
2022/07/04 14:09:12;;;;;;;7.25;5.63;;;28.30;22.30;;;;;;5068508;28;20585;-87
2022/07/04 14:11:54;;;;;;;4.53;2.70;;;28.50;22.40;;;;;;5070484;28;20208;-86
2022/07/04 14:15:03;;;;;;;6.18;3.10;;;28.50;21.90;;;;;;5071738;28;20644;-87
2022/07/04 14:17:42;;;;;;;3.30;2.70;;;28.10;21.90;;;;;;5069599;28;20185;-87
2022/07/04 14:20:12;;;;;;;3.15;2.63;;;27.90;23.90;;;;;;5072246;28;20600;-87
2022/07/04 14:22:42;;;;;;;5.47;4.00;;;27.80;23.60;;;;;;5065973;28;20281;-87
2022/07/04 14:25:10;;;;;;;2.45;1.83;;;27.80;23.50;;;;;;5071501;28;20204;-86